This is the latest recevied weather packets stored in our database for station/object EA1PVC-10. If no packets are shown the sender has not sent any weather packets the latest 10 day(s).
| Time | Temp. | Humidity | Pressure | Rain* | Wind** | Luminosity | Snow |
|---|---|---|---|---|---|---|---|
| 1777129281 | 36.67° C | 25% | 923 hPa | - | - | - | - |
| 1777128381 | 32.22° C | 31% | 923.1 hPa | - | - | - | - |
| 1777127481 | 33.33° C | 30% | 923.2 hPa | - | - | - | - |
| 1777126584 | 27.22° C | 33% | 917.6 hPa | - | - | - | - |
| 1777114857 | 21.11° C | 61% | 924.6 hPa | - | - | - | - |
| 1777113957 | 20.56° C | 64% | 924.7 hPa | - | - | - | - |
| 1777113057 | 18.89° C | 67% | 924.9 hPa | - | - | - | - |
| 1777112157 | 18.89° C | 67% | 925 hPa | - | - | - | - |
| 1777111257 | 18.89° C | 67% | 925.1 hPa | - | - | - | - |
| 1777110357 | 18.33° C | 70% | 925 hPa | - | - | - | - |
| 1777109457 | 18.33° C | 70% | 925.1 hPa | - | - | - | - |
| 1777108557 | 17.78° C | 73% | 925.1 hPa | - | - | - | - |
| 1777107657 | 16.11° C | 79% | 925 hPa | - | - | - | - |
| 1777106756 | 15° C | 82% | 924.9 hPa | - | - | - | - |
| 1777104956 | 8.89° C | 83% | 916.8 hPa | - | - | - | - |
| 1777104045 | 15° C | 83% | 925 hPa | - | - | - | - |
| 1777103145 | 14.44° C | 86% | 924.9 hPa | - | - | - | - |
| 1777102245 | 13.89° C | 87% | 924.8 hPa | - | - | - | - |
| 1777101345 | 12.78° C | 88% | 924.6 hPa | - | - | - | - |
| 1777100445 | 12.78° C | 88% | 924.8 hPa | - | - | - | - |
| 1777099545 | 12.22° C | 88% | 924.7 hPa | - | - | - | - |
| 1777098645 | 12.22° C | 88% | 924.7 hPa | - | - | - | - |
| 1777097744 | 12.22° C | 87% | 924.6 hPa | - | - | - | - |
| 1777096844 | 12.22° C | 87% | 924.5 hPa | - | - | - | - |
| 1777095944 | 11.67° C | 87% | 924.4 hPa | - | - | - | - |
* Rain since midnight (hover to see other rain measurements)
** Current wind speed in m/s (hover to see current wind gust speed)